createdAt,value
2023-05-25T00:02:01.538Z,22.63
2023-05-25T00:23:16.572Z,22.42
2023-05-25T00:26:36.103Z,23.38
2023-05-25T00:36:05.210Z,22.90
2023-05-25T00:38:38.909Z,23.55
2023-05-25T00:59:36.702Z,22.88
2023-05-25T01:40:37.583Z,24.67
2023-05-25T01:45:04.500Z,24.00
2023-05-25T01:54:06.433Z,23.65
2023-05-25T02:00:06.438Z,24.98
2023-05-25T02:08:32.737Z,25.63
2023-05-25T02:26:58.641Z,25.08
2023-05-25T02:33:34.230Z,27.48
2023-05-25T02:34:36.563Z,27.08
2023-05-25T02:35:38.662Z,26.48
2023-05-25T02:40:00.607Z,26.35
2023-05-25T02:41:02.834Z,25.85
2023-05-25T02:42:22.610Z,25.65
2023-05-25T02:43:24.559Z,26.80
2023-05-25T02:44:27.230Z,27.60
2023-05-25T02:45:31.606Z,26.40
2023-05-25T02:46:34.140Z,25.77
2023-05-25T02:47:37.885Z,26.05
2023-05-25T02:48:40.088Z,27.13
2023-05-25T02:49:42.872Z,26.92
2023-05-25T02:50:44.992Z,26.02
2023-05-25T02:51:50.625Z,25.38
2023-05-25T02:52:52.534Z,24.90
2023-05-25T02:53:54.757Z,25.58
2023-05-25T02:54:56.724Z,25.98
2023-05-25T02:57:10.251Z,25.17
2023-05-25T02:58:12.450Z,25.05
2023-05-25T02:59:29.524Z,25.00
2023-05-25T03:00:32.815Z,25.55
2023-05-25T03:01:35.604Z,26.67
2023-05-25T03:02:37.972Z,26.58
2023-05-25T03:03:40.100Z,27.15
2023-05-25T03:04:43.268Z,26.20
2023-05-25T03:05:45.538Z,26.63
2023-05-25T03:06:48.683Z,27.17
2023-05-25T03:07:54.272Z,26.20
2023-05-25T03:08:57.311Z,25.77
2023-05-25T03:09:59.714Z,28.40
2023-05-25T03:11:01.838Z,25.27
2023-05-25T03:12:04.237Z,27.08
2023-05-25T03:13:06.485Z,26.17
2023-05-25T03:14:10.631Z,24.55
2023-05-25T03:15:14.097Z,25.98
2023-05-25T03:16:16.141Z,24.65
2023-05-25T03:17:18.248Z,26.48
2023-05-25T03:18:20.191Z,25.33
2023-05-25T03:19:22.767Z,25.58
2023-05-25T03:20:24.827Z,25.20
2023-05-25T03:21:27.822Z,25.10
2023-05-25T03:22:29.792Z,23.85
2023-05-25T03:23:31.763Z,24.52
2023-05-25T03:24:34.186Z,24.83
2023-05-25T03:25:38.111Z,24.27
2023-05-25T03:26:40.778Z,23.63
2023-05-25T03:27:43.155Z,24.02
2023-05-25T03:28:45.056Z,23.83
2023-05-25T03:29:50.454Z,42.30
2023-05-25T03:30:52.501Z,38.92
2023-05-25T03:31:54.789Z,23.88
2023-05-25T03:32:59.923Z,27.88
2023-05-25T03:34:07.734Z,24.92
2023-05-25T03:35:11.998Z,23.92
2023-05-25T03:36:17.337Z,24.20
2023-05-25T03:37:20.805Z,24.95
2023-05-25T03:38:23.027Z,24.58
2023-05-25T03:39:25.081Z,25.73
2023-05-25T03:40:28.411Z,22.98
2023-05-25T03:41:30.362Z,23.98
2023-05-25T03:42:32.835Z,23.90
2023-05-25T03:43:35.574Z,23.55
2023-05-25T03:44:40.507Z,22.52
2023-05-25T03:45:43.824Z,24.08
2023-05-25T03:46:46.136Z,23.90
2023-05-25T03:47:50.144Z,23.52
2023-05-25T03:48:52.256Z,24.42
2023-05-25T03:49:54.574Z,22.85
2023-05-25T03:50:56.664Z,22.80
2023-05-25T03:52:01.386Z,23.20
2023-05-25T03:53:03.673Z,22.77
2023-05-25T03:54:05.915Z,23.83
2023-05-25T03:55:08.271Z,23.83
2023-05-25T03:56:10.323Z,22.85
2023-05-25T03:57:14.200Z,22.88
2023-05-25T03:58:18.506Z,23.65
2023-05-25T03:59:21.689Z,23.70
2023-05-25T04:00:23.754Z,23.10
2023-05-25T04:01:26.683Z,22.98
2023-05-25T04:02:29.978Z,21.92
2023-05-25T04:03:33.026Z,22.98
2023-05-25T04:04:35.278Z,22.55
2023-05-25T04:05:37.244Z,23.27
2023-05-25T04:06:39.248Z,23.25
2023-05-25T04:07:42.673Z,22.58
2023-05-25T04:08:45.594Z,22.90
2023-05-25T04:09:47.681Z,22.88
2023-05-25T04:10:51.440Z,22.95
2023-05-25T04:11:53.438Z,23.20
2023-05-25T04:12:56.834Z,21.60
2023-05-25T04:14:00.029Z,39.60
2023-05-25T04:15:05.722Z,51.75
2023-05-25T04:16:12.459Z,74.93
2023-05-25T04:17:19.094Z,22.23
2023-05-25T04:18:21.350Z,22.90
2023-05-25T04:19:24.290Z,22.25
2023-05-25T04:20:26.712Z,21.63
2023-05-25T04:21:28.880Z,21.60
2023-05-25T04:22:31.242Z,21.27
2023-05-25T04:23:34.219Z,21.45
2023-05-25T04:24:37.783Z,20.67
2023-05-25T04:25:39.775Z,20.83
2023-05-25T04:26:41.819Z,21.83
2023-05-25T04:27:46.778Z,20.17
2023-05-25T04:28:50.917Z,20.60
2023-05-25T04:30:03.961Z,19.63
2023-05-25T04:31:22.182Z,20.17
2023-05-25T04:32:45.866Z,20.75
2023-05-25T04:34:02.666Z,19.75
2023-05-25T04:35:07.605Z,20.48
2023-05-25T04:36:16.296Z,20.20
2023-05-25T04:37:18.441Z,20.58
2023-05-25T04:38:20.940Z,18.98
2023-05-25T04:39:22.821Z,20.20
2023-05-25T04:40:28.817Z,19.92
2023-05-25T04:41:30.869Z,19.60
2023-05-25T04:42:38.512Z,19.00
2023-05-25T04:43:52.657Z,19.25
2023-05-25T04:45:03.910Z,19.95
2023-05-25T04:46:08.024Z,19.30
2023-05-25T04:47:10.829Z,19.42
2023-05-25T04:48:13.784Z,17.65
2023-05-25T04:49:19.120Z,18.55
2023-05-25T04:50:21.230Z,19.27
2023-05-25T04:51:23.212Z,18.55
2023-05-25T04:52:27.390Z,19.10
2023-05-25T04:53:29.930Z,19.48
2023-05-25T04:54:31.983Z,19.02
2023-05-25T04:55:36.285Z,19.83
2023-05-25T04:56:38.225Z,19.05
2023-05-25T04:57:40.884Z,19.23
2023-05-25T04:58:42.902Z,19.70
2023-05-25T04:59:45.230Z,19.52
2023-05-25T05:00:47.358Z,20.38
2023-05-25T05:01:51.174Z,20.35
2023-05-25T05:02:57.457Z,21.00
2023-05-25T05:04:00.398Z,20.77
2023-05-25T05:05:02.678Z,20.25
2023-05-25T05:06:06.452Z,20.17
2023-05-25T05:07:09.303Z,20.55
2023-05-25T05:08:13.473Z,20.20
2023-05-25T05:09:15.506Z,20.33
2023-05-25T05:10:18.298Z,20.58
2023-05-25T05:11:24.404Z,21.25
2023-05-25T05:12:29.847Z,21.33
2023-05-25T05:13:35.021Z,21.90
2023-05-25T05:14:38.128Z,22.00
2023-05-25T05:15:40.094Z,20.85
2023-05-25T05:16:42.036Z,21.92
2023-05-25T05:17:47.817Z,21.15
2023-05-25T05:18:50.092Z,22.35
2023-05-25T05:19:52.300Z,22.02
2023-05-25T05:20:54.881Z,21.55
2023-05-25T05:21:58.285Z,23.92
2023-05-25T05:23:01.989Z,24.05
2023-05-25T05:24:04.058Z,24.38
2023-05-25T05:25:07.466Z,23.02
2023-05-25T05:26:11.636Z,23.90
2023-05-25T05:27:15.090Z,24.73
2023-05-25T05:28:21.918Z,23.77
2023-05-25T05:29:24.107Z,23.80
2023-05-25T05:30:26.793Z,24.25
2023-05-25T05:32:33.719Z,25.45
2023-05-25T05:33:36.627Z,24.05
2023-05-25T05:34:39.504Z,24.35
2023-05-25T05:35:49.053Z,25.08
2023-05-25T05:36:58.613Z,24.08
2023-05-25T05:38:03.002Z,25.00
2023-05-25T05:39:04.932Z,24.58
2023-05-25T05:40:09.478Z,24.58
2023-05-25T05:41:14.350Z,24.92
2023-05-25T05:42:18.384Z,23.67
2023-05-25T05:43:20.401Z,23.00
2023-05-25T05:44:26.892Z,23.88
2023-05-25T05:45:31.174Z,23.05
2023-05-25T05:46:34.305Z,23.90
2023-05-25T05:47:37.256Z,24.13
2023-05-25T05:48:39.376Z,24.38
2023-05-25T05:49:41.424Z,23.15
2023-05-25T05:50:43.337Z,24.00
2023-05-25T05:51:48.558Z,24.75
2023-05-25T05:52:50.642Z,24.80
2023-05-25T05:53:53.211Z,24.10
2023-05-25T05:54:55.332Z,23.38
2023-05-25T05:55:59.361Z,24.80
2023-05-25T05:57:02.617Z,23.45
2023-05-25T05:58:04.688Z,22.63
2023-05-25T05:59:07.553Z,22.73
2023-05-25T06:00:10.128Z,23.55
2023-05-25T06:01:18.505Z,23.42
2023-05-25T06:02:22.016Z,23.13
2023-05-25T06:03:24.632Z,23.63
2023-05-25T06:04:29.059Z,24.13
2023-05-25T06:05:32.394Z,23.23
2023-05-25T06:06:35.887Z,23.88
2023-05-25T06:07:38.616Z,22.45
2023-05-25T06:08:43.456Z,23.75
2023-05-25T06:09:45.756Z,22.83
2023-05-25T06:10:48.403Z,24.08
2023-05-25T06:11:50.594Z,23.55
2023-05-25T06:12:54.052Z,22.88
2023-05-25T06:13:57.586Z,22.92
2023-05-25T06:15:00.099Z,21.38
2023-05-25T06:16:06.712Z,20.42
2023-05-25T06:17:08.814Z,22.50
2023-05-25T06:18:10.955Z,20.67
2023-05-25T06:19:14.617Z,21.50
2023-05-25T06:20:17.555Z,21.40
2023-05-25T06:21:20.779Z,21.98
2023-05-25T06:22:28.097Z,21.00
2023-05-25T06:23:31.432Z,20.55
2023-05-25T06:24:33.461Z,20.83
2023-05-25T06:25:35.306Z,21.58
2023-05-25T06:26:37.728Z,21.45
2023-05-25T06:27:40.059Z,22.23
2023-05-25T06:28:42.462Z,21.17
2023-05-25T06:29:44.484Z,21.33
2023-05-25T06:30:46.448Z,21.52
2023-05-25T06:31:48.508Z,21.92
2023-05-25T06:32:50.582Z,22.20
2023-05-25T06:33:52.540Z,22.50
2023-05-25T06:34:56.039Z,23.58
2023-05-25T06:36:00.671Z,22.92
2023-05-25T06:37:02.833Z,23.23
2023-05-25T06:38:06.531Z,23.27
2023-05-25T06:39:08.436Z,23.05
2023-05-25T06:40:11.403Z,23.48
2023-05-25T06:41:15.351Z,24.73
2023-05-25T06:42:18.405Z,23.77
2023-05-25T06:43:28.274Z,24.40
2023-05-25T06:44:50.584Z,27.40
2023-05-25T06:45:53.030Z,24.77
2023-05-25T06:46:54.943Z,25.30
2023-05-25T06:47:57.641Z,26.27
2023-05-25T06:49:01.337Z,29.08
2023-05-25T06:50:03.879Z,28.63
2023-05-25T06:51:06.135Z,31.58
2023-05-25T06:52:08.056Z,36.78
2023-05-25T06:53:11.342Z,34.90
2023-05-25T06:54:14.997Z,43.53
2023-05-25T06:55:17.348Z,40.25
2023-05-25T06:56:19.768Z,45.65
2023-05-25T06:57:22.617Z,44.58
2023-05-25T06:58:24.676Z,46.33
2023-05-25T06:59:26.477Z,46.28
2023-05-25T07:00:28.362Z,47.15
2023-05-25T07:01:30.320Z,47.13
2023-05-25T07:02:32.175Z,49.95
2023-05-25T07:03:34.416Z,48.75
2023-05-25T07:04:36.365Z,49.70
2023-05-25T07:05:38.250Z,49.78
2023-05-25T07:06:40.340Z,49.92
2023-05-25T07:07:42.547Z,51.03
2023-05-25T07:08:44.565Z,49.72
2023-05-25T07:09:47.546Z,50.38
2023-05-25T07:10:50.503Z,50.30
2023-05-25T07:11:52.414Z,49.72
2023-05-25T07:12:54.537Z,49.65
2023-05-25T07:13:56.401Z,51.45
2023-05-25T07:14:59.600Z,51.10
2023-05-25T07:16:01.690Z,50.45
2023-05-25T07:17:03.977Z,50.83
2023-05-25T07:18:06.541Z,49.33
2023-05-25T07:19:08.516Z,51.17
2023-05-25T07:20:12.725Z,51.45
2023-05-25T07:21:14.643Z,50.85
2023-05-25T07:22:19.620Z,51.65
2023-05-25T07:23:21.686Z,52.30
2023-05-25T07:24:23.531Z,51.70
2023-05-25T07:25:25.446Z,49.45
2023-05-25T07:26:28.044Z,49.25
2023-05-25T07:27:31.646Z,50.58
2023-05-25T07:28:34.657Z,50.60
2023-05-25T07:29:36.523Z,51.55
2023-05-25T07:30:38.388Z,52.08
2023-05-25T07:31:40.461Z,52.53
2023-05-25T07:32:42.862Z,52.00
2023-05-25T07:33:45.151Z,50.05
2023-05-25T07:34:46.939Z,49.88
2023-05-25T07:35:49.021Z,50.15
2023-05-25T07:36:50.904Z,51.78
2023-05-25T07:37:59.593Z,50.38
2023-05-25T07:39:01.769Z,50.67
2023-05-25T07:40:03.984Z,50.47
2023-05-25T07:41:06.108Z,51.38
2023-05-25T07:42:08.060Z,51.60
2023-05-25T07:43:10.514Z,53.70
2023-05-25T07:44:12.357Z,54.30
2023-05-25T07:45:14.226Z,52.42
2023-05-25T07:46:17.346Z,52.05
2023-05-25T07:47:19.204Z,51.40
2023-05-25T07:48:21.595Z,51.97
2023-05-25T07:49:23.437Z,51.47
2023-05-25T07:50:25.503Z,52.15
2023-05-25T07:51:30.264Z,53.67
2023-05-25T07:52:32.170Z,51.67
2023-05-25T07:53:34.993Z,52.67
2023-05-25T07:54:40.346Z,51.97
2023-05-25T07:55:42.599Z,52.92
2023-05-25T07:56:44.624Z,56.20
2023-05-25T07:57:46.797Z,58.40
2023-05-25T07:58:49.334Z,59.13
2023-05-25T07:59:51.273Z,52.35
2023-05-25T08:00:53.296Z,47.17
2023-05-25T08:01:55.241Z,47.25
2023-05-25T08:02:57.896Z,48.22
2023-05-25T08:04:00.558Z,48.30
2023-05-25T08:05:05.987Z,48.63
2023-05-25T08:06:08.055Z,48.63
2023-05-25T08:07:10.064Z,49.80
2023-05-25T08:08:11.972Z,50.67
2023-05-25T08:09:14.298Z,47.90
2023-05-25T08:10:16.385Z,49.83
2023-05-25T08:11:26.767Z,50.45
2023-05-25T08:13:49.625Z,48.75
2023-05-25T08:14:51.829Z,50.28
2023-05-25T08:15:53.757Z,49.05
2023-05-25T08:16:55.962Z,48.17
2023-05-25T08:17:57.924Z,47.47
2023-05-25T08:19:01.814Z,48.35
2023-05-25T08:20:06.426Z,49.05
2023-05-25T08:21:08.474Z,47.72
2023-05-25T08:22:11.102Z,47.92
2023-05-25T08:23:15.508Z,48.85
2023-05-25T08:24:17.451Z,50.35
2023-05-25T08:25:20.399Z,49.90
2023-05-25T08:27:28.095Z,47.75
2023-05-25T08:28:30.470Z,49.80
2023-05-25T08:29:32.453Z,48.70
2023-05-25T08:30:34.583Z,49.67
2023-05-25T08:31:37.428Z,50.38
2023-05-25T08:32:39.401Z,49.85
2023-05-25T08:33:41.928Z,47.63
2023-05-25T08:34:43.994Z,48.40
2023-05-25T08:35:46.231Z,49.20
2023-05-25T08:36:48.721Z,49.50
2023-05-25T08:37:50.863Z,50.35
2023-05-25T08:38:54.183Z,50.97
2023-05-25T08:39:56.945Z,49.83
2023-05-25T08:41:06.799Z,51.13
2023-05-25T08:42:09.537Z,49.85
2023-05-25T08:43:11.726Z,49.30
2023-05-25T08:44:15.544Z,51.42
2023-05-25T08:45:33.312Z,50.25
2023-05-25T08:46:37.716Z,48.13
2023-05-25T08:47:43.464Z,49.35
2023-05-25T08:48:48.602Z,49.70
2023-05-25T08:49:52.810Z,49.78
2023-05-25T08:50:56.223Z,49.22
2023-05-25T08:51:58.554Z,49.80
2023-05-25T08:53:05.217Z,50.55
2023-05-25T08:54:13.298Z,50.22
2023-05-25T08:55:18.488Z,50.37
2023-05-25T08:56:20.864Z,49.65
2023-05-25T08:57:48.471Z,48.63
2023-05-25T08:59:07.118Z,49.20
2023-05-25T09:00:11.276Z,50.67
2023-05-25T09:01:18.373Z,51.47
2023-05-25T09:02:29.188Z,50.72
2023-05-25T09:03:31.844Z,51.10
2023-05-25T09:04:34.993Z,51.08
2023-05-25T09:05:38.170Z,51.60
2023-05-25T09:06:40.829Z,50.70
2023-05-25T09:07:43.988Z,51.50
2023-05-25T09:08:46.575Z,49.88
2023-05-25T09:09:49.107Z,50.10
2023-05-25T09:10:52.393Z,53.08
2023-05-25T09:11:55.525Z,51.20
2023-05-25T09:12:57.929Z,49.95
2023-05-25T09:14:01.005Z,50.80
2023-05-25T09:15:03.020Z,50.97
2023-05-25T09:16:05.604Z,50.20
2023-05-25T09:17:07.961Z,48.03
2023-05-25T09:18:13.031Z,65.57
2023-05-25T09:19:18.319Z,58.20
2023-05-25T09:20:20.576Z,56.33
2023-05-25T09:21:22.651Z,49.35
2023-05-25T09:22:24.496Z,49.83
2023-05-25T09:23:27.664Z,48.30
2023-05-25T09:24:29.873Z,50.58
2023-05-25T09:25:33.923Z,49.83
2023-05-25T09:26:36.257Z,49.80
2023-05-25T09:27:38.894Z,47.90
2023-05-25T09:28:47.719Z,49.65
2023-05-25T09:29:50.696Z,49.05
2023-05-25T09:30:52.675Z,49.35
2023-05-25T09:31:54.623Z,49.95
2023-05-25T09:33:09.638Z,49.40
2023-05-25T09:34:13.403Z,50.70
2023-05-25T09:35:15.914Z,49.88
2023-05-25T09:36:20.184Z,49.35
2023-05-25T09:37:22.272Z,49.53
2023-05-25T09:38:24.707Z,50.53
2023-05-25T09:39:27.239Z,48.88
2023-05-25T09:40:30.475Z,50.70
2023-05-25T09:41:32.319Z,50.72
2023-05-25T09:42:34.353Z,53.55
2023-05-25T09:43:41.849Z,54.28
2023-05-25T09:44:49.996Z,51.30
2023-05-25T09:45:55.068Z,52.05
2023-05-25T09:46:56.956Z,51.55
2023-05-25T09:47:59.763Z,51.50
2023-05-25T09:49:02.659Z,52.50
2023-05-25T09:50:05.796Z,52.83
2023-05-25T09:51:09.125Z,52.33
2023-05-25T09:52:12.556Z,53.20
2023-05-25T09:53:14.744Z,54.63
2023-05-25T09:54:17.061Z,53.55
2023-05-25T09:55:19.117Z,54.60
2023-05-25T09:56:22.166Z,52.92
2023-05-25T09:57:24.040Z,56.00
2023-05-25T09:58:27.032Z,53.55
2023-05-25T09:59:29.161Z,54.40
2023-05-25T10:00:31.239Z,54.55
2023-05-25T10:01:35.046Z,54.60
2023-05-25T10:02:37.160Z,52.80
2023-05-25T10:03:59.380Z,53.60
2023-05-25T10:05:07.522Z,52.25
2023-05-25T10:06:09.743Z,52.50
2023-05-25T10:07:12.060Z,50.00
2023-05-25T10:08:14.354Z,52.72
2023-05-25T10:09:19.286Z,52.45
2023-05-25T10:10:21.953Z,52.38
2023-05-25T10:11:26.457Z,51.67
2023-05-25T10:12:29.206Z,50.90
2023-05-25T10:13:33.546Z,53.05
2023-05-25T10:14:38.967Z,52.03
2023-05-25T10:15:44.056Z,51.80
2023-05-25T10:16:52.107Z,50.65
2023-05-25T10:17:55.819Z,52.85
2023-05-25T10:19:22.039Z,54.35
2023-05-25T10:20:27.460Z,55.20
2023-05-25T10:21:33.241Z,53.78
2023-05-25T10:22:48.206Z,52.65
2023-05-25T10:23:53.574Z,53.95
2023-05-25T10:25:10.283Z,55.90
2023-05-25T10:26:16.702Z,55.47
2023-05-25T10:27:27.112Z,56.03
2023-05-25T10:28:35.702Z,56.92
2023-05-25T10:29:39.527Z,57.28
2023-05-25T10:30:42.604Z,55.53
2023-05-25T10:31:45.652Z,57.25
2023-05-25T10:32:48.643Z,57.47
2023-05-25T10:33:52.715Z,57.72
2023-05-25T10:34:57.354Z,57.65
2023-05-25T10:36:10.111Z,57.58
2023-05-25T10:37:14.698Z,55.88
2023-05-25T10:38:19.775Z,55.83
2023-05-25T10:39:22.677Z,54.97
2023-05-25T10:40:24.536Z,57.13
2023-05-25T10:41:26.718Z,55.38
2023-05-25T10:42:29.674Z,55.45
2023-05-25T10:43:32.709Z,55.95
2023-05-25T10:44:34.896Z,55.47
2023-05-25T10:45:36.927Z,55.30
2023-05-25T10:46:39.570Z,55.92
2023-05-25T10:47:42.409Z,56.90
2023-05-25T10:48:50.142Z,55.63
2023-05-25T10:50:03.076Z,54.92
2023-05-25T10:51:07.726Z,56.85
2023-05-25T10:52:11.149Z,56.40
2023-05-25T10:53:14.054Z,56.08
2023-05-25T10:54:16.344Z,54.28
2023-05-25T10:55:18.422Z,54.97
2023-05-25T10:56:20.582Z,55.00
2023-05-25T10:57:24.262Z,55.75
2023-05-25T10:58:28.394Z,55.92
2023-05-25T10:59:30.233Z,56.40
2023-05-25T11:00:32.277Z,54.80
2023-05-25T11:01:51.534Z,53.78
2023-05-25T11:02:55.708Z,52.00
2023-05-25T11:04:18.435Z,53.97
2023-05-25T11:05:26.548Z,52.83
2023-05-25T11:06:37.930Z,52.80
2023-05-25T11:08:01.812Z,52.88
2023-05-25T11:09:04.258Z,52.08
2023-05-25T11:10:06.660Z,53.70
2023-05-25T11:11:08.533Z,53.72
2023-05-25T11:12:22.634Z,48.25
2023-05-25T11:13:31.232Z,46.95
2023-05-25T11:14:37.244Z,45.45
2023-05-25T11:15:40.199Z,47.75
2023-05-25T11:16:42.181Z,47.55
2023-05-25T11:17:46.795Z,47.00
2023-05-25T11:18:59.019Z,46.72
2023-05-25T11:20:06.359Z,45.65
2023-05-25T11:21:18.842Z,46.20
2023-05-25T11:22:31.126Z,47.25
2023-05-25T11:23:35.206Z,45.00
2023-05-25T11:24:37.097Z,47.08
2023-05-25T11:25:43.262Z,46.75
2023-05-25T11:26:58.310Z,48.15
2023-05-25T11:28:04.431Z,47.22
2023-05-25T11:29:13.803Z,50.58
2023-05-25T11:30:18.394Z,49.50
2023-05-25T11:31:34.886Z,48.92
2023-05-25T11:32:50.682Z,49.22
2023-05-25T11:33:57.416Z,49.50
2023-05-25T11:34:59.561Z,46.67
2023-05-25T11:36:01.800Z,42.70
2023-05-25T11:37:04.518Z,37.15
2023-05-25T11:38:07.857Z,34.70
2023-05-25T11:39:17.581Z,36.83
2023-05-25T11:40:24.135Z,36.20
2023-05-25T11:41:26.251Z,36.70
2023-05-25T11:42:29.383Z,36.70
2023-05-25T11:43:34.130Z,35.80
2023-05-25T11:44:36.913Z,35.15
2023-05-25T11:45:39.572Z,37.20
2023-05-25T11:46:43.742Z,36.60
2023-05-25T11:47:46.119Z,36.20
2023-05-25T11:48:52.797Z,36.67
2023-05-25T11:49:55.617Z,34.47
2023-05-25T11:51:06.945Z,35.42
2023-05-25T11:52:10.030Z,35.75
2023-05-25T11:53:12.039Z,36.72
2023-05-25T11:54:28.049Z,36.22
2023-05-25T11:55:29.998Z,36.00
2023-05-25T11:56:36.004Z,35.80
2023-05-25T11:57:39.237Z,35.42
2023-05-25T11:58:44.543Z,36.08
2023-05-25T11:59:57.811Z,35.70
2023-05-25T12:01:20.326Z,35.10
2023-05-25T12:02:23.577Z,34.13
2023-05-25T12:03:31.147Z,35.53
2023-05-25T12:04:34.222Z,33.15
2023-05-25T12:05:39.739Z,33.17
2023-05-25T12:06:41.784Z,32.95
2023-05-25T12:07:46.700Z,34.42
2023-05-25T12:08:48.654Z,33.92
2023-05-25T12:09:50.740Z,32.55
2023-05-25T12:10:52.671Z,33.30
2023-05-25T12:11:54.877Z,34.10
2023-05-25T12:12:58.461Z,32.42
2023-05-25T12:14:05.133Z,32.65
2023-05-25T12:15:12.211Z,32.95
2023-05-25T12:16:14.287Z,33.72
2023-05-25T12:17:21.553Z,36.00
2023-05-25T12:18:24.369Z,35.28
2023-05-25T12:19:26.635Z,33.65
2023-05-25T12:20:28.899Z,35.05
2023-05-25T12:21:32.040Z,33.75
2023-05-25T12:22:34.591Z,33.92
2023-05-25T12:23:36.825Z,34.45
2023-05-25T12:24:43.956Z,33.70
2023-05-25T12:25:51.041Z,35.13
2023-05-25T12:27:01.856Z,35.22
2023-05-25T12:28:14.978Z,33.15
2023-05-25T12:29:20.851Z,35.30
2023-05-25T12:30:28.245Z,35.72
2023-05-25T12:31:36.761Z,35.58
2023-05-25T12:33:04.478Z,36.25
2023-05-25T12:34:09.868Z,35.30
2023-05-25T12:35:11.811Z,36.45
2023-05-25T12:36:14.295Z,37.42
2023-05-25T12:37:21.364Z,37.33
2023-05-25T12:38:23.427Z,40.70
2023-05-25T12:39:31.518Z,39.70
2023-05-25T12:40:33.473Z,40.10
2023-05-25T12:41:54.814Z,39.22
2023-05-25T12:42:57.394Z,39.42
2023-05-25T12:43:59.628Z,39.90
2023-05-25T12:45:02.020Z,39.88
2023-05-25T12:46:04.000Z,39.28
2023-05-25T12:47:35.573Z,39.33
2023-05-25T12:48:37.483Z,39.38
2023-05-25T12:49:41.372Z,40.13
2023-05-25T12:50:59.327Z,40.30
2023-05-25T12:52:03.664Z,40.70
2023-05-25T12:53:05.816Z,40.38
2023-05-25T12:54:07.990Z,39.40
2023-05-25T12:55:30.128Z,38.88
2023-05-25T12:56:32.048Z,37.92
2023-05-25T12:57:36.463Z,39.13
2023-05-25T12:58:38.478Z,38.00
2023-05-25T12:59:46.301Z,40.28
2023-05-25T13:00:48.382Z,38.92
2023-05-25T13:01:50.822Z,37.72
2023-05-25T13:02:54.185Z,39.30
2023-05-25T13:03:56.410Z,38.33
2023-05-25T13:04:58.654Z,38.22
2023-05-25T13:06:02.671Z,38.95
2023-05-25T13:07:05.870Z,40.00
2023-05-25T13:08:07.747Z,39.25
2023-05-25T13:09:10.304Z,39.33
2023-05-25T13:10:13.053Z,40.75
2023-05-25T13:11:15.187Z,40.90
2023-05-25T13:12:18.047Z,41.42
2023-05-25T13:13:20.037Z,40.55
2023-05-25T13:14:23.313Z,39.30
2023-05-25T13:15:26.901Z,38.97
2023-05-25T13:16:32.698Z,39.30
2023-05-25T13:17:35.765Z,39.50
2023-05-25T13:18:37.810Z,40.72
2023-05-25T13:19:40.593Z,39.05
2023-05-25T13:20:42.615Z,39.67
2023-05-25T13:21:46.146Z,39.40
2023-05-25T13:22:50.320Z,40.17
2023-05-25T13:23:52.573Z,37.92
2023-05-25T13:24:54.751Z,39.22
2023-05-25T13:25:56.930Z,39.53
2023-05-25T13:26:58.901Z,38.28
2023-05-25T13:28:05.769Z,39.03
2023-05-25T13:29:07.838Z,38.60
2023-05-25T13:30:11.847Z,37.28
2023-05-25T13:31:13.655Z,38.00
2023-05-25T13:32:15.594Z,37.67
2023-05-25T13:33:17.534Z,36.47
2023-05-25T13:34:21.938Z,37.47
2023-05-25T13:35:46.337Z,37.35
2023-05-25T13:36:48.776Z,35.80
2023-05-25T13:37:51.392Z,36.55
2023-05-25T13:38:54.929Z,34.00
2023-05-25T13:39:58.301Z,34.65
2023-05-25T13:41:01.270Z,34.88
2023-05-25T13:42:03.240Z,35.03
2023-05-25T13:43:05.248Z,36.35
2023-05-25T13:44:07.395Z,33.65
2023-05-25T13:45:09.986Z,33.17
2023-05-25T13:46:25.959Z,35.50
2023-05-25T13:47:35.257Z,34.45
2023-05-25T13:48:37.410Z,36.97
2023-05-25T13:49:39.505Z,37.33
2023-05-25T13:50:42.422Z,37.47
2023-05-25T13:51:44.448Z,34.05
2023-05-25T13:52:46.271Z,38.70
2023-05-25T13:53:49.097Z,48.35
2023-05-25T13:54:51.122Z,41.53
2023-05-25T13:55:53.389Z,36.50
2023-05-25T13:56:55.203Z,36.45
2023-05-25T13:57:57.060Z,36.38
2023-05-25T13:58:59.128Z,34.70
2023-05-25T14:00:01.062Z,35.25
2023-05-25T14:01:04.539Z,34.75
2023-05-25T14:02:07.151Z,34.47
2023-05-25T14:03:09.211Z,34.17
2023-05-25T14:04:14.780Z,33.53
2023-05-25T14:05:16.540Z,31.73
2023-05-25T14:06:18.479Z,32.35
2023-05-25T14:07:20.344Z,31.50
2023-05-25T14:08:22.261Z,32.55
2023-05-25T14:09:24.267Z,30.85
2023-05-25T14:10:26.137Z,31.38
2023-05-25T14:11:28.820Z,31.00
2023-05-25T14:12:31.489Z,31.30
2023-05-25T14:13:36.555Z,31.45
2023-05-25T14:14:41.928Z,30.00
2023-05-25T14:15:44.358Z,30.23
2023-05-25T14:16:46.542Z,31.25
2023-05-25T14:17:48.426Z,30.35
2023-05-25T14:18:50.399Z,30.55
2023-05-25T14:19:52.466Z,29.85
2023-05-25T14:20:54.752Z,30.63
2023-05-25T14:22:11.686Z,31.65
2023-05-25T14:23:18.409Z,32.65
2023-05-25T14:24:22.507Z,31.60
2023-05-25T14:25:24.493Z,30.90
2023-05-25T14:26:29.537Z,30.92
2023-05-25T14:27:31.753Z,31.27
2023-05-25T14:28:33.730Z,31.00
2023-05-25T14:29:40.872Z,32.63
2023-05-25T14:30:42.790Z,32.33
2023-05-25T14:31:44.832Z,31.13
2023-05-25T14:32:46.991Z,32.63
2023-05-25T14:33:49.345Z,31.40
2023-05-25T14:34:52.410Z,29.33
2023-05-25T14:35:54.496Z,32.85
2023-05-25T14:36:56.281Z,31.35
2023-05-25T14:37:58.318Z,31.27
2023-05-25T14:39:00.312Z,30.13
2023-05-25T14:40:03.171Z,32.67
2023-05-25T14:41:05.197Z,31.13
2023-05-25T14:42:07.504Z,30.67
2023-05-25T14:43:09.433Z,29.92
2023-05-25T14:44:11.705Z,29.98
2023-05-25T14:45:16.317Z,31.05
2023-05-25T14:46:19.283Z,30.30
2023-05-25T14:47:21.301Z,30.60
2023-05-25T14:48:25.485Z,30.10
2023-05-25T14:49:28.375Z,29.63
2023-05-25T14:50:30.532Z,29.52
2023-05-25T14:51:32.655Z,30.75
2023-05-25T14:52:34.575Z,29.48
2023-05-25T14:53:36.517Z,29.98
2023-05-25T14:54:44.067Z,30.23
2023-05-25T14:55:45.979Z,32.13
2023-05-25T14:56:48.423Z,31.10
2023-05-25T14:57:50.203Z,30.35
2023-05-25T14:58:52.113Z,30.13
2023-05-25T14:59:55.152Z,29.70
2023-05-25T15:00:57.037Z,30.08
2023-05-25T15:01:58.878Z,29.58
2023-05-25T15:03:00.998Z,29.10
2023-05-25T15:04:03.420Z,29.73
2023-05-25T15:05:07.184Z,29.98
2023-05-25T15:06:09.048Z,29.83
2023-05-25T15:07:13.041Z,28.85
2023-05-25T15:08:14.994Z,29.65
2023-05-25T15:09:19.279Z,28.92
2023-05-25T15:10:21.149Z,30.38
2023-05-25T15:11:23.475Z,29.98
2023-05-25T15:12:25.351Z,30.58
2023-05-25T15:13:27.211Z,29.73
2023-05-25T15:14:29.648Z,29.77
2023-05-25T15:15:31.817Z,29.08
2023-05-25T15:16:33.846Z,30.42
2023-05-25T15:17:36.137Z,30.48
2023-05-25T15:18:38.046Z,31.20
2023-05-25T15:19:40.180Z,30.77
2023-05-25T15:20:42.046Z,31.20
2023-05-25T15:21:43.949Z,31.45
2023-05-25T15:22:46.022Z,31.65
2023-05-25T15:23:47.991Z,32.10
2023-05-25T15:24:50.127Z,32.95
2023-05-25T15:25:51.964Z,33.72
2023-05-25T15:26:53.876Z,32.50
2023-05-25T15:27:55.819Z,34.72
2023-05-25T15:28:58.042Z,34.13
2023-05-25T15:30:00.825Z,34.10
2023-05-25T15:31:03.590Z,33.78
2023-05-25T15:32:07.931Z,34.95
2023-05-25T15:33:10.000Z,33.28
2023-05-25T15:34:11.959Z,33.85
2023-05-25T15:35:14.204Z,34.30
2023-05-25T15:36:16.231Z,33.30
2023-05-25T15:37:18.134Z,36.45
2023-05-25T15:38:20.078Z,33.40
2023-05-25T15:39:22.345Z,35.85
2023-05-25T15:40:24.497Z,35.03
2023-05-25T15:41:27.127Z,34.28
2023-05-25T15:42:29.229Z,33.30
2023-05-25T15:43:31.050Z,34.40
2023-05-25T15:44:35.919Z,35.67
2023-05-25T15:45:37.837Z,34.08
2023-05-25T15:46:41.078Z,35.13
2023-05-25T15:47:43.186Z,33.33
2023-05-25T15:48:45.277Z,33.80
2023-05-25T15:49:48.727Z,34.60
2023-05-25T15:50:51.317Z,35.08
2023-05-25T15:51:53.867Z,33.00
2023-05-25T15:52:56.394Z,35.63
2023-05-25T15:53:58.266Z,35.17
2023-05-25T15:55:01.551Z,34.67
2023-05-25T15:56:03.489Z,36.60
2023-05-25T15:57:06.277Z,36.47
2023-05-25T15:58:08.308Z,34.53
2023-05-25T15:59:12.343Z,35.20
2023-05-25T16:00:17.551Z,36.78
2023-05-25T16:01:19.578Z,35.13
2023-05-25T16:02:21.821Z,34.22
2023-05-25T16:03:24.062Z,35.28
2023-05-25T16:04:26.206Z,35.42
2023-05-25T16:05:29.879Z,34.65
2023-05-25T16:06:32.445Z,34.22
2023-05-25T16:07:34.630Z,33.35
2023-05-25T16:08:36.503Z,33.33
2023-05-25T16:09:39.075Z,33.53
2023-05-25T16:10:40.879Z,34.30
2023-05-25T16:11:42.811Z,33.30
2023-05-25T16:12:44.607Z,31.73